Time;durP1;ratioP1;P1;durP2;ratioP2;P2;SDS_P1;SDS_P2;PMS_P1;PMS_P2;Temp;Humidity;BMP_temperature;BMP_pressure;BME280_temperature;BME280_humidity;BME280_pressure;Samples;Min_cycle;Max_cycle;Signal;HPM_P1;HPM_P2
2023/02/06 06:10:39;;;;;;;1.17;1.07;;;;;;;;;;7432260;19;20202;-95
2023/02/06 06:13:19;;;;;;;1.57;1.47;;;;;;;;;;7430844;19;20140;-96
2023/02/06 06:15:55;;;;;;;1.40;1.30;;;;;;;;;;7431143;19;20141;-95
2023/02/06 06:18:44;;;;;;;1.23;1.20;;;;;;;;;;7433232;19;20162;-96
2023/02/06 10:26:16;;;;;;;0.77;0.77;;;;;;;;;;7402115;19;20152;-92
2023/02/06 10:28:47;;;;;;;1.30;1.20;;;;;;;;;;7401516;19;20489;-92
2023/02/06 10:31:20;;;;;;;1.47;1.37;;;;;;;;;;7401957;19;20569;-91
2023/02/06 10:34:09;;;;;;;1.97;1.10;;;;;;;;;;7400385;19;20620;-87
2023/02/06 10:36:45;;;;;;;0.63;0.63;;;;;;;;;;7404299;19;20163;-91
2023/02/06 10:39:14;;;;;;;1.63;1.07;;;;;;;;;;7404223;19;20156;-89
2023/02/06 10:41:48;;;;;;;0.93;0.90;;;;;;;;;;7407503;19;20136;-92
2023/02/06 10:44:33;;;;;;;1.07;0.80;;;;;;;;;;7401187;19;20141;-91
2023/02/06 10:47:00;;;;;;;1.23;1.13;;;;;;;;;;7398345;19;20129;-90
2023/02/06 10:49:37;;;;;;;0.67;0.67;;;;;;;;;;7397579;19;20444;-89
2023/02/06 10:52:22;;;;;;;0.47;0.47;;;;;;;;;;7397380;19;20129;-87
2023/02/06 10:55:03;;;;;;;0.60;0.60;;;;;;;;;;7397629;19;20164;-91
2023/02/06 10:57:30;;;;;;;0.43;0.43;;;;;;;;;;7399668;19;20159;-91
2023/02/06 10:59:59;;;;;;;0.40;0.40;;;;;;;;;;7397554;19;20129;-87
2023/02/06 11:02:31;;;;;;;0.90;0.80;;;;;;;;;;7397465;19;20136;-90
2023/02/06 11:05:13;;;;;;;0.50;0.50;;;;;;;;;;7397618;19;20136;-92
2023/02/06 11:07:43;;;;;;;0.30;0.30;;;;;;;;;;7398235;19;20136;-88
2023/02/06 11:10:15;;;;;;;0.60;0.60;;;;;;;;;;7401350;19;20156;-91
2023/02/06 11:12:47;;;;;;;0.70;0.70;;;;;;;;;;7396811;19;20172;-91
2023/02/06 11:15:35;;;;;;;0.47;0.47;;;;;;;;;;7399581;19;20140;-89
2023/02/06 11:18:04;;;;;;;0.57;0.57;;;;;;;;;;7400610;19;20137;-89
2023/02/06 11:20:33;;;;;;;0.70;0.70;;;;;;;;;;7402177;19;20163;-90
2023/02/06 11:23:25;;;;;;;0.60;0.60;;;;;;;;;;7399583;19;20168;-90
2023/02/06 11:26:18;;;;;;;0.97;0.97;;;;;;;;;;7401428;19;20507;-88
2023/02/06 11:28:57;;;;;;;1.00;0.90;;;;;;;;;;7401635;19;20169;-89
2023/02/06 11:31:55;;;;;;;1.33;1.03;;;;;;;;;;7402843;19;20496;-89
2023/02/06 11:34:26;;;;;;;0.47;0.47;;;;;;;;;;7408560;19;20133;-89
2023/02/06 11:36:56;;;;;;;1.03;0.93;;;;;;;;;;7409048;19;20141;-92
2023/02/06 11:39:36;;;;;;;0.70;0.70;;;;;;;;;;7401852;19;20148;-89
2023/02/06 11:42:18;;;;;;;0.90;0.90;;;;;;;;;;7400675;19;20136;-88
2023/02/06 11:44:47;;;;;;;1.00;0.87;;;;;;;;;;7400366;19;20167;-88
2023/02/06 11:47:34;;;;;;;0.50;0.50;;;;;;;;;;7404742;19;20144;-89
2023/02/06 11:50:12;;;;;;;0.83;0.73;;;;;;;;;;7405115;19;20141;-87
2023/02/06 11:52:41;;;;;;;0.70;0.70;;;;;;;;;;7405797;19;20232;-89
2023/02/06 11:55:22;;;;;;;0.52;0.52;;;;;;;;;;7409657;19;20155;-88
2023/02/06 11:58:05;;;;;;;1.85;1.75;;;;;;;;;;7422910;19;20161;-88
2023/02/06 12:00:34;;;;;;;1.27;1.17;;;;;;;;;;7424161;19;20162;-89
2023/02/06 12:03:02;;;;;;;1.25;0.80;;;;;;;;;;7405921;19;20172;-87
2023/02/06 12:05:33;;;;;;;1.73;1.63;;;;;;;;;;7403007;19;20133;-87
2023/02/06 12:08:09;;;;;;;0.80;0.73;;;;;;;;;;7401888;19;20166;-88
2023/02/06 12:10:48;;;;;;;1.38;0.73;;;;;;;;;;7402740;19;20155;-87
2023/02/06 12:13:19;;;;;;;0.70;0.70;;;;;;;;;;7401589;19;20157;-89
2023/02/06 12:15:49;;;;;;;0.43;0.43;;;;;;;;;;7400702;19;20167;-88
2023/02/06 12:18:20;;;;;;;9.60;1.25;;;;;;;;;;7399631;19;20129;-87
2023/02/06 12:20:50;;;;;;;0.60;0.60;;;;;;;;;;7400249;19;20552;-86
2023/02/06 12:23:24;;;;;;;0.82;0.57;;;;;;;;;;7400249;19;20554;-87
2023/02/06 12:25:55;;;;;;;0.73;0.73;;;;;;;;;;7401632;19;20156;-87
2023/02/06 12:28:30;;;;;;;0.52;0.52;;;;;;;;;;7401030;19;20156;-87
2023/02/06 12:30:59;;;;;;;0.95;0.95;;;;;;;;;;7402457;19;20140;-87
2023/02/06 12:33:34;;;;;;;0.85;0.85;;;;;;;;;;7401479;19;20189;-87
2023/02/06 12:36:15;;;;;;;0.93;0.93;;;;;;;;;;7401759;19;20124;-87
2023/02/06 12:38:55;;;;;;;0.80;0.80;;;;;;;;;;7400234;19;20144;-87
2023/02/06 12:41:47;;;;;;;0.85;0.85;;;;;;;;;;7407351;19;20175;-88
2023/02/06 12:44:28;;;;;;;0.68;0.60;;;;;;;;;;7408268;19;20680;-86
2023/02/06 12:47:24;;;;;;;0.85;0.85;;;;;;;;;;7407122;19;20136;-87
2023/02/06 12:49:57;;;;;;;1.67;1.02;;;;;;;;;;7404238;19;20148;-88
2023/02/06 12:52:30;;;;;;;0.73;0.73;;;;;;;;;;7404473;19;20202;-87
2023/02/06 12:55:11;;;;;;;1.20;1.08;;;;;;;;;;7402893;19;20163;-87
2023/02/06 12:57:38;;;;;;;0.70;0.70;;;;;;;;;;7402289;19;20144;-87
2023/02/06 13:00:37;;;;;;;0.75;0.75;;;;;;;;;;7399403;19;20168;-87
2023/02/06 13:03:22;;;;;;;0.77;0.77;;;;;;;;;;7402556;19;20179;-87
2023/02/06 13:05:53;;;;;;;0.47;0.47;;;;;;;;;;7400703;19;20160;-87
2023/02/06 13:08:23;;;;;;;0.93;0.93;;;;;;;;;;7399329;19;20149;-87
2023/02/06 13:11:01;;;;;;;0.68;0.68;;;;;;;;;;7399365;19;20153;-87
2023/02/06 13:13:31;;;;;;;0.30;0.30;;;;;;;;;;7394845;19;20157;-87
2023/02/06 13:15:59;;;;;;;0.50;0.50;;;;;;;;;;7398756;19;20151;-89
2023/02/06 13:18:35;;;;;;;0.80;0.80;;;;;;;;;;7393942;19;20151;-89
2023/02/06 13:21:27;;;;;;;0.93;0.85;;;;;;;;;;7395514;19;20157;-86
2023/02/06 13:24:00;;;;;;;0.60;0.55;;;;;;;;;;7391286;19;20168;-89
2023/02/06 13:26:41;;;;;;;0.50;0.50;;;;;;;;;;7394955;19;20519;-89
2023/02/06 13:29:26;;;;;;;0.50;0.50;;;;;;;;;;7394575;19;20172;-89
2023/02/06 13:32:11;;;;;;;0.70;0.70;;;;;;;;;;7397628;19;20136;-88
2023/02/06 13:34:43;;;;;;;0.85;0.85;;;;;;;;;;7398966;19;20536;-89
2023/02/06 13:37:39;;;;;;;1.10;1.08;;;;;;;;;;7398548;19;20159;-90
2023/02/06 13:40:29;;;;;;;0.70;0.70;;;;;;;;;;7395937;19;20136;-89
2023/02/06 13:43:01;;;;;;;0.50;0.50;;;;;;;;;;7400525;19;20168;-89
2023/02/06 13:45:44;;;;;;;0.60;0.60;;;;;;;;;;7401063;19;20163;-89
2023/02/06 13:48:26;;;;;;;0.82;0.82;;;;;;;;;;7402095;19;20137;-89
2023/02/06 13:51:11;;;;;;;0.57;0.57;;;;;;;;;;7400140;19;20149;-90
2023/02/06 13:53:56;;;;;;;1.27;0.98;;;;;;;;;;7396448;19;20179;-90
2023/02/06 13:56:53;;;;;;;0.85;0.85;;;;;;;;;;7394938;19;20141;-89
2023/02/06 13:59:27;;;;;;;0.40;0.40;;;;;;;;;;7392767;19;20148;-90
2023/02/06 14:02:22;;;;;;;0.47;0.47;;;;;;;;;;7395563;19;20148;-91
2023/02/06 14:04:49;;;;;;;0.30;0.30;;;;;;;;;;7393902;19;20141;-91
2023/02/06 14:07:20;;;;;;;0.80;0.80;;;;;;;;;;7393882;19;20151;-92
2023/02/06 14:13:10;;;;;;;0.50;0.50;;;;;;;;;;7392416;19;20195;-93
2023/02/06 14:16:11;;;;;;;0.40;0.40;;;;;;;;;;7392428;19;20143;-91
2023/02/06 14:18:43;;;;;;;0.40;0.40;;;;;;;;;;7393247;19;20133;-90
2023/02/06 14:21:46;;;;;;;1.00;0.90;;;;;;;;;;7393650;19;20150;-90
2023/02/06 14:24:21;;;;;;;0.30;0.30;;;;;;;;;;7391520;19;20199;-90
2023/02/06 14:27:05;;;;;;;0.60;0.60;;;;;;;;;;7394189;19;20145;-91
2023/02/06 14:33:06;;;;;;;0.30;0.30;;;;;;;;;;7393926;19;20172;-89
2023/02/06 14:35:54;;;;;;;0.30;0.30;;;;;;;;;;7394755;19;20627;-87
2023/02/06 14:38:47;;;;;;;0.30;0.30;;;;;;;;;;7394191;19;20155;-88
2023/02/06 14:41:14;;;;;;;0.83;0.60;;;;;;;;;;7400982;19;20601;-89
2023/02/06 14:43:42;;;;;;;0.30;0.30;;;;;;;;;;7400656;19;20210;-90
2023/02/06 14:46:14;;;;;;;0.40;0.40;;;;;;;;;;7400929;19;20141;-89
2023/02/06 14:48:50;;;;;;;0.40;0.40;;;;;;;;;;7403614;19;20137;-89
2023/02/06 14:51:20;;;;;;;0.30;0.30;;;;;;;;;;7400706;19;20148;-89
2023/02/06 14:54:01;;;;;;;0.37;0.37;;;;;;;;;;7400551;19;20216;-89
2023/02/06 14:56:31;;;;;;;0.30;0.30;;;;;;;;;;7398845;19;20631;-89
2023/02/06 14:59:15;;;;;;;0.20;0.20;;;;;;;;;;7396448;19;20129;-90
2023/02/06 15:01:44;;;;;;;0.30;0.30;;;;;;;;;;7397645;19;20148;-90
2023/02/06 15:04:16;;;;;;;1.23;0.90;;;;;;;;;;7395695;19;20195;-89
2023/02/06 15:06:54;;;;;;;0.30;0.30;;;;;;;;;;7399396;19;20835;-89
2023/02/06 15:09:34;;;;;;;0.30;0.30;;;;;;;;;;7397010;19;20140;-89
2023/02/06 15:12:05;;;;;;;0.30;0.30;;;;;;;;;;7398293;19;20140;-89
2023/02/06 15:14:33;;;;;;;0.30;0.30;;;;;;;;;;7398636;19;20586;-88
2023/02/06 15:17:01;;;;;;;0.30;0.30;;;;;;;;;;7397186;19;20148;-86
2023/02/06 15:19:34;;;;;;;0.40;0.40;;;;;;;;;;7396843;19;20145;-89
2023/02/06 15:22:09;;;;;;;0.30;0.30;;;;;;;;;;7397203;19;20148;-89
2023/02/06 15:25:08;;;;;;;0.50;0.50;;;;;;;;;;7397792;19;20145;-89
2023/02/06 15:27:36;;;;;;;0.60;0.60;;;;;;;;;;7397757;19;20140;-89
2023/02/06 15:30:17;;;;;;;0.80;0.80;;;;;;;;;;7397707;19;20176;-89
2023/02/06 15:32:47;;;;;;;1.07;1.03;;;;;;;;;;7396616;19;20176;-90
2023/02/06 15:35:32;;;;;;;0.83;0.83;;;;;;;;;;7397622;19;20508;-90
2023/02/06 15:38:07;;;;;;;1.73;0.70;;;;;;;;;;7396234;19;20673;-88
2023/02/06 15:40:38;;;;;;;0.90;0.90;;;;;;;;;;7406744;19;20141;-91
2023/02/06 15:43:05;;;;;;;2.53;1.13;;;;;;;;;;7429216;19;20164;-90
2023/02/06 15:45:35;;;;;;;0.43;0.43;;;;;;;;;;7431273;19;20137;-90
2023/02/06 15:48:11;;;;;;;0.40;0.40;;;;;;;;;;7428818;19;20164;-89
2023/02/06 15:50:38;;;;;;;0.90;0.90;;;;;;;;;;7420896;19;20148;-91
2023/02/06 15:53:17;;;;;;;1.10;1.10;;;;;;;;;;7396532;19;20604;-90
2023/02/06 15:55:51;;;;;;;0.60;0.60;;;;;;;;;;7398588;19;20140;-91
2023/02/06 15:58:17;;;;;;;0.70;0.70;;;;;;;;;;7396094;19;20148;-90
2023/02/06 16:00:50;;;;;;;1.30;0.60;;;;;;;;;;7395452;19;20617;-90
2023/02/06 16:03:21;;;;;;;1.07;0.80;;;;;;;;;;7396930;19;20163;-91
2023/02/06 16:05:47;;;;;;;0.50;0.50;;;;;;;;;;7397820;19;20159;-87
2023/02/06 16:08:28;;;;;;;0.47;0.47;;;;;;;;;;7389551;19;20160;-87
2023/02/06 16:10:58;;;;;;;0.83;0.73;;;;;;;;;;7400823;19;20144;-87
2023/02/06 16:13:27;;;;;;;1.00;1.00;;;;;;;;;;7401472;19;20714;-88
2023/02/06 16:16:10;;;;;;;1.30;1.20;;;;;;;;;;7390872;19;20140;-90
2023/02/06 16:18:38;;;;;;;0.47;0.33;;;;;;;;;;7390616;19;20136;-90
2023/02/06 16:21:14;;;;;;;1.17;1.07;;;;;;;;;;7392138;19;20172;-91
2023/02/06 16:23:45;;;;;;;0.63;0.63;;;;;;;;;;7395548;19;20172;-91
2023/02/06 16:26:14;;;;;;;0.77;0.77;;;;;;;;;;7389850;19;20646;-93
2023/02/06 16:29:10;;;;;;;0.87;0.87;;;;;;;;;;7399254;19;20516;-91
2023/02/06 16:31:41;;;;;;;0.60;0.60;;;;;;;;;;7397633;19;20152;-92
2023/02/06 16:34:18;;;;;;;0.63;0.63;;;;;;;;;;7392547;19;20172;-92
2023/02/06 16:36:45;;;;;;;0.77;0.77;;;;;;;;;;7395988;19;20144;-92
2023/02/06 16:39:14;;;;;;;0.77;0.77;;;;;;;;;;7393607;19;20144;-92
2023/02/06 16:41:41;;;;;;;0.90;0.90;;;;;;;;;;7394983;19;20499;-91
2023/02/06 16:44:13;;;;;;;0.70;0.70;;;;;;;;;;7396643;19;20164;-92
2023/02/06 16:46:40;;;;;;;0.67;0.67;;;;;;;;;;7403003;19;20151;-93
2023/02/06 16:49:15;;;;;;;0.43;0.43;;;;;;;;;;7402359;19;20160;-91
2023/02/06 16:51:42;;;;;;;0.80;0.70;;;;;;;;;;7399821;19;20163;-92
2023/02/06 16:54:19;;;;;;;0.47;0.47;;;;;;;;;;7398340;19;20160;-92
2023/02/06 16:56:46;;;;;;;1.23;1.13;;;;;;;;;;7396577;19;20600;-90
2023/02/06 16:59:12;;;;;;;0.77;0.77;;;;;;;;;;7397648;19;20151;-90
2023/02/06 17:01:39;;;;;;;0.87;0.87;;;;;;;;;;7395973;19;20145;-89
2023/02/06 17:04:05;;;;;;;1.10;0.97;;;;;;;;;;7391166;19;20164;-91
2023/02/06 17:06:34;;;;;;;0.73;0.73;;;;;;;;;;7395909;19;20137;-90
2023/02/06 17:09:07;;;;;;;1.90;1.07;;;;;;;;;;7395382;19;20133;-91
2023/02/06 17:11:35;;;;;;;1.20;1.10;;;;;;;;;;7395265;19;20131;-92
2023/02/06 17:14:02;;;;;;;1.60;0.67;;;;;;;;;;7390818;19;20145;-90
2023/02/06 17:16:29;;;;;;;1.57;1.47;;;;;;;;;;7396900;19;20137;-90
2023/02/06 17:18:56;;;;;;;0.90;0.87;;;;;;;;;;7394011;19;20140;-91
2023/02/06 17:21:23;;;;;;;2.40;0.60;;;;;;;;;;7394361;19;20155;-91
2023/02/06 17:23:50;;;;;;;1.17;1.07;;;;;;;;;;7390802;19;20639;-91
2023/02/06 17:26:22;;;;;;;0.93;0.93;;;;;;;;;;7394453;19;20151;-90
2023/02/06 17:28:51;;;;;;;1.47;1.40;;;;;;;;;;7397317;19;20146;-91
2023/02/06 17:31:18;;;;;;;1.50;1.07;;;;;;;;;;7392232;19;20488;-91
2023/02/06 17:33:44;;;;;;;0.93;0.93;;;;;;;;;;7390574;19;20197;-90
2023/02/06 17:36:14;;;;;;;0.87;0.87;;;;;;;;;;7393723;19;20141;-89
2023/02/06 17:38:41;;;;;;;0.97;0.97;;;;;;;;;;7393729;19;20635;-88
2023/02/06 17:41:08;;;;;;;0.70;0.70;;;;;;;;;;7392716;19;20144;-91
2023/02/06 17:43:36;;;;;;;0.83;0.83;;;;;;;;;;7395177;19;20167;-91
2023/02/06 17:46:04;;;;;;;1.03;1.03;;;;;;;;;;7394177;19;20143;-92
2023/02/06 17:48:33;;;;;;;0.50;0.50;;;;;;;;;;7394730;19;20137;-91
2023/02/06 17:51:03;;;;;;;0.73;0.73;;;;;;;;;;7394779;19;20167;-89
2023/02/06 17:53:30;;;;;;;1.17;1.07;;;;;;;;;;7393469;19;20179;-91
2023/02/06 17:56:02;;;;;;;3.03;0.60;;;;;;;;;;7395004;19;20151;-91
2023/02/06 17:58:30;;;;;;;1.57;1.17;;;;;;;;;;7395227;19;20149;-89
2023/02/06 18:00:56;;;;;;;0.73;0.73;;;;;;;;;;7393190;19;20510;-89
2023/02/06 18:03:23;;;;;;;1.53;1.37;;;;;;;;;;7392725;19;20177;-91
2023/02/06 18:05:58;;;;;;;0.50;0.50;;;;;;;;;;7394864;19;20148;-92
2023/02/06 18:08:25;;;;;;;0.60;0.60;;;;;;;;;;7393054;19;20171;-92
2023/02/06 18:10:55;;;;;;;1.23;1.07;;;;;;;;;;7394023;19;20160;-91
2023/02/06 18:13:23;;;;;;;1.37;1.27;;;;;;;;;;7390723;19;20191;-91
2023/02/06 18:15:55;;;;;;;1.20;1.13;;;;;;;;;;7400898;19;20212;-90
2023/02/06 18:18:23;;;;;;;0.50;0.50;;;;;;;;;;7401312;19;20200;-91
2023/02/06 18:20:50;;;;;;;0.60;0.60;;;;;;;;;;7400342;19;20144;-91
2023/02/06 18:23:18;;;;;;;1.43;1.33;;;;;;;;;;7398693;19;20176;-92
2023/02/06 18:25:49;;;;;;;0.50;0.50;;;;;;;;;;7401384;19;20734;-93
2023/02/06 18:28:20;;;;;;;0.50;0.50;;;;;;;;;;7398351;19;20169;-88
2023/02/06 18:30:47;;;;;;;3.90;0.80;;;;;;;;;;7395320;19;20220;-89
2023/02/06 18:33:13;;;;;;;1.40;1.30;;;;;;;;;;7386093;19;20569;-89
2023/02/06 18:35:43;;;;;;;2.33;1.17;;;;;;;;;;7380736;19;20148;-90
2023/02/06 18:38:11;;;;;;;0.77;0.73;;;;;;;;;;7389074;19;20148;-91
2023/02/06 18:40:39;;;;;;;0.70;0.70;;;;;;;;;;7385254;19;20140;-89
2023/02/06 18:43:06;;;;;;;0.80;0.80;;;;;;;;;;7386776;19;20152;-90
2023/02/06 18:45:35;;;;;;;2.23;1.57;;;;;;;;;;7386643;19;20141;-91
2023/02/06 18:48:03;;;;;;;0.87;0.83;;;;;;;;;;7385041;19;20600;-91
2023/02/06 18:50:30;;;;;;;0.63;0.63;;;;;;;;;;7387803;19;20145;-90
2023/02/06 18:52:57;;;;;;;0.53;0.53;;;;;;;;;;7386186;19;20156;-90
2023/02/06 18:55:23;;;;;;;1.80;1.33;;;;;;;;;;7387053;19;20167;-89
2023/02/06 18:57:51;;;;;;;0.87;0.87;;;;;;;;;;7384529;19;20148;-88
2023/02/06 19:00:19;;;;;;;0.80;0.80;;;;;;;;;;7383433;19;20155;-90
2023/02/06 19:02:46;;;;;;;0.87;0.87;;;;;;;;;;7380128;19;20187;-89
2023/02/06 19:05:13;;;;;;;0.60;0.60;;;;;;;;;;7382181;19;20129;-90
2023/02/06 19:07:39;;;;;;;1.17;1.03;;;;;;;;;;7389301;19;20164;-90
2023/02/06 19:10:14;;;;;;;0.90;0.90;;;;;;;;;;7397372;19;20145;-88
2023/02/06 19:12:41;;;;;;;1.23;1.13;;;;;;;;;;7391707;19;20652;-89
2023/02/06 19:15:09;;;;;;;1.07;0.97;;;;;;;;;;7391467;19;20145;-91
2023/02/06 19:17:38;;;;;;;1.03;1.03;;;;;;;;;;7395581;19;20204;-91
2023/02/06 19:20:06;;;;;;;0.70;0.70;;;;;;;;;;7394590;19;20144;-90
2023/02/06 19:22:34;;;;;;;1.10;1.00;;;;;;;;;;7392970;19;20634;-93
2023/02/06 19:25:02;;;;;;;0.93;0.93;;;;;;;;;;7394576;19;20493;-94
2023/02/06 19:27:29;;;;;;;0.90;0.90;;;;;;;;;;7394347;19;20174;-92
2023/02/06 19:29:55;;;;;;;1.50;1.40;;;;;;;;;;7408218;19;20129;-93
2023/02/06 19:32:24;;;;;;;1.10;1.10;;;;;;;;;;7400508;19;20183;-89
2023/02/06 19:34:51;;;;;;;1.63;1.53;;;;;;;;;;7396562;19;20133;-93
2023/02/06 19:37:17;;;;;;;1.20;1.07;;;;;;;;;;7396066;19;20137;-92
2023/02/06 19:39:44;;;;;;;0.87;0.63;;;;;;;;;;7396261;19;20137;-89
2023/02/06 19:42:15;;;;;;;1.00;1.00;;;;;;;;;;7393980;19;20140;-93
2023/02/06 19:44:42;;;;;;;4.30;1.67;;;;;;;;;;7395782;19;20133;-91
2023/02/06 19:47:09;;;;;;;1.13;1.13;;;;;;;;;;7395578;19;20167;-92
2023/02/06 19:49:36;;;;;;;1.73;1.47;;;;;;;;;;7397427;19;20148;-92
2023/02/06 19:52:03;;;;;;;0.73;0.73;;;;;;;;;;7395947;19;20152;-92
2023/02/06 19:54:29;;;;;;;1.67;1.57;;;;;;;;;;7394788;19;20598;-92
2023/02/06 19:56:56;;;;;;;0.73;0.73;;;;;;;;;;7395368;19;20150;-92
2023/02/06 19:59:26;;;;;;;0.40;0.40;;;;;;;;;;7395317;19;20129;-92
2023/02/06 20:01:53;;;;;;;1.67;1.00;;;;;;;;;;7393705;19;20133;-92
2023/02/06 20:04:28;;;;;;;1.10;1.00;;;;;;;;;;7395167;19;20132;-91
2023/02/06 20:06:55;;;;;;;1.77;1.30;;;;;;;;;;7398771;19;20601;-91
2023/02/06 20:09:23;;;;;;;1.00;1.00;;;;;;;;;;7394898;19;20117;-91
2023/02/06 20:11:50;;;;;;;2.37;0.90;;;;;;;;;;7394924;19;20117;-91
2023/02/06 20:14:17;;;;;;;1.20;1.10;;;;;;;;;;7391805;19;20179;-88
2023/02/06 20:16:44;;;;;;;0.77;0.77;;;;;;;;;;7395604;19;20129;-90
2023/02/06 20:19:20;;;;;;;1.20;1.20;;;;;;;;;;7395675;19;20144;-90
2023/02/06 20:21:49;;;;;;;1.80;1.10;;;;;;;;;;7394757;19;20155;-92
2023/02/06 20:24:20;;;;;;;1.57;1.47;;;;;;;;;;7397584;19;20153;-92
2023/02/06 20:26:52;;;;;;;1.30;1.20;;;;;;;;;;7396086;19;20484;-93
2023/02/06 20:29:22;;;;;;;2.20;1.70;;;;;;;;;;7396455;19;20141;-89
2023/02/06 20:31:50;;;;;;;1.13;1.13;;;;;;;;;;7397604;19;20139;-92
2023/02/06 20:34:17;;;;;;;1.30;1.20;;;;;;;;;;7395189;19;20141;-92
2023/02/06 20:36:44;;;;;;;0.87;0.87;;;;;;;;;;7397622;19;20140;-92
2023/02/06 20:39:12;;;;;;;1.63;1.53;;;;;;;;;;7396145;19;20159;-92
2023/02/06 20:41:38;;;;;;;1.50;1.40;;;;;;;;;;7395779;19;20129;-92
2023/02/06 20:44:06;;;;;;;1.50;1.40;;;;;;;;;;7394142;19;20149;-88
2023/02/06 20:46:33;;;;;;;2.70;2.07;;;;;;;;;;7396930;19;20137;-93
2023/02/06 20:49:08;;;;;;;1.43;1.33;;;;;;;;;;7394799;19;20600;-93
2023/02/06 20:51:34;;;;;;;1.87;1.40;;;;;;;;;;7393564;19;20160;-91
2023/02/06 20:54:01;;;;;;;1.93;1.83;;;;;;;;;;7391627;19;20153;-91
2023/02/06 20:56:28;;;;;;;1.70;1.57;;;;;;;;;;7393384;19;20125;-91
2023/02/06 20:59:00;;;;;;;1.23;1.13;;;;;;;;;;7392105;19;20148;-92
2023/02/06 21:01:28;;;;;;;0.93;0.93;;;;;;;;;;7391501;19;20547;-93
2023/02/06 21:03:58;;;;;;;1.93;1.43;;;;;;;;;;7389897;19;20153;-91
2023/02/06 21:06:26;;;;;;;1.30;1.17;;;;;;;;;;7391148;19;20125;-91
2023/02/06 21:08:58;;;;;;;1.80;1.23;;;;;;;;;;7391066;19;20136;-92
2023/02/06 21:11:30;;;;;;;1.10;1.10;;;;;;;;;;7395191;19;20137;-92
2023/02/06 21:13:59;;;;;;;0.77;0.77;;;;;;;;;;7391966;19;20164;-92
2023/02/06 21:16:27;;;;;;;1.50;1.40;;;;;;;;;;7396278;19;20125;-92
2023/02/06 21:18:57;;;;;;;1.37;1.27;;;;;;;;;;7396634;19;20179;-92
2023/02/06 21:21:25;;;;;;;0.77;0.77;;;;;;;;;;7392746;19;20144;-92
2023/02/06 21:23:54;;;;;;;1.43;1.33;;;;;;;;;;7393562;19;20161;-93
2023/02/06 21:26:23;;;;;;;1.50;1.37;;;;;;;;;;7394129;19;20137;-93
2023/02/06 21:28:50;;;;;;;1.43;1.33;;;;;;;;;;7393261;19;20156;-93
2023/02/06 21:31:22;;;;;;;1.63;1.53;;;;;;;;;;7392433;19;20496;-93
2023/02/06 21:33:50;;;;;;;0.53;0.53;;;;;;;;;;7390619;19;20643;-93
2023/02/06 21:36:17;;;;;;;1.20;1.20;;;;;;;;;;7396257;19;20133;-93
2023/02/06 21:38:44;;;;;;;1.63;1.53;;;;;;;;;;7396096;19;20159;-93
2023/02/06 21:41:13;;;;;;;1.50;1.40;;;;;;;;;;7398633;19;20145;-93
2023/02/06 21:43:40;;;;;;;2.60;1.67;;;;;;;;;;7391312;19;20503;-92
2023/02/06 21:46:11;;;;;;;1.30;1.20;;;;;;;;;;7393963;19;20128;-93
2023/02/06 21:48:39;;;;;;;1.60;1.50;;;;;;;;;;7392336;19;20146;-91
2023/02/06 21:51:10;;;;;;;1.67;1.57;;;;;;;;;;7395106;19;20163;-90
2023/02/06 21:53:37;;;;;;;1.20;1.10;;;;;;;;;;7395604;19;20164;-89
2023/02/06 21:56:05;;;;;;;1.20;1.20;;;;;;;;;;7397738;19;20581;-90
2023/02/06 21:58:32;;;;;;;2.20;1.27;;;;;;;;;;7398323;19;20220;-93
2023/02/06 22:00:59;;;;;;;0.73;0.73;;;;;;;;;;7397290;19;20601;-91
